createdAt,value
2023-09-06T00:00:24.511Z,91.18
2023-09-06T00:03:10.927Z,91.37
2023-09-06T00:05:56.437Z,90.99
2023-09-06T00:08:41.284Z,90.56
2023-09-06T00:11:26.202Z,90.35
2023-09-06T00:14:11.129Z,90.44
2023-09-06T00:16:56.615Z,90.15
2023-09-06T00:19:41.674Z,90.31
2023-09-06T00:22:26.615Z,90.59
2023-09-06T00:25:11.508Z,90.62
2023-09-06T00:27:57.059Z,90.46
2023-09-06T00:30:42.430Z,90.56
2023-09-06T00:33:27.826Z,90.93
2023-09-06T00:36:13.146Z,93.23
2023-09-06T00:38:58.130Z,94.16
2023-09-06T00:41:42.943Z,96.44
2023-09-06T00:44:27.798Z,96.29
2023-09-06T00:47:12.654Z,96.61
2023-09-06T00:49:57.540Z,98.59
2023-09-06T00:52:43.964Z,100.00
2023-09-06T00:55:28.809Z,100.00
2023-09-06T00:58:15.758Z,100.00
2023-09-06T01:01:01.375Z,100.00
2023-09-06T01:03:46.652Z,100.00
2023-09-06T01:06:35.137Z,100.00
2023-09-06T01:09:20.395Z,100.00
2023-09-06T01:12:05.490Z,100.00
2023-09-06T01:14:50.709Z,100.00
2023-09-06T01:17:37.081Z,100.00
2023-09-06T01:20:34.822Z,100.00
2023-09-06T01:23:30.868Z,99.43
2023-09-06T01:26:17.410Z,97.99
2023-09-06T01:29:03.199Z,96.94
2023-09-06T01:31:48.407Z,96.47
2023-09-06T01:34:33.740Z,95.44
2023-09-06T01:37:18.647Z,95.34
2023-09-06T01:40:05.680Z,94.79
2023-09-06T01:42:51.079Z,95.29
2023-09-06T01:45:38.686Z,95.42
2023-09-06T01:48:23.690Z,96.37
2023-09-06T01:51:08.708Z,96.90
2023-09-06T01:53:53.793Z,97.74
2023-09-06T01:56:38.644Z,98.70
2023-09-06T01:59:23.582Z,98.00
2023-09-06T02:02:08.509Z,97.03
2023-09-06T02:04:53.921Z,97.25
2023-09-06T02:07:38.737Z,100.00
2023-09-06T02:10:23.680Z,100.00
2023-09-06T02:13:08.910Z,100.00
2023-09-06T02:15:54.080Z,100.00
2023-09-06T02:18:39.497Z,100.00
2023-09-06T02:21:24.839Z,100.00
2023-09-06T02:24:09.939Z,100.00
2023-09-06T02:26:55.300Z,100.00
2023-09-06T02:29:41.429Z,100.00
2023-09-06T02:32:26.715Z,100.00
2023-09-06T02:35:11.996Z,100.00
2023-09-06T02:37:57.096Z,100.00
2023-09-06T02:40:42.246Z,100.00
2023-09-06T02:43:27.340Z,100.00
2023-09-06T02:46:12.701Z,100.00
2023-09-06T02:48:57.439Z,100.00
2023-09-06T02:51:42.365Z,100.00
2023-09-06T02:54:27.106Z,100.00
2023-09-06T02:57:12.038Z,100.00
2023-09-06T02:59:57.165Z,100.00
2023-09-06T03:02:42.319Z,100.00
2023-09-06T03:05:27.094Z,100.00
2023-09-06T03:08:13.438Z,100.00
2023-09-06T03:10:58.502Z,100.00
2023-09-06T03:13:43.760Z,100.00
2023-09-06T03:16:28.754Z,100.00
2023-09-06T03:19:13.899Z,100.00
2023-09-06T03:21:58.794Z,100.00
2023-09-06T03:24:43.563Z,100.00
2023-09-06T03:27:28.375Z,100.00
2023-09-06T03:30:13.297Z,100.00
2023-09-06T03:32:58.498Z,100.00
2023-09-06T03:35:44.511Z,100.00
2023-09-06T03:38:29.541Z,100.00
2023-09-06T03:41:14.737Z,100.00
2023-09-06T03:43:59.580Z,100.00
2023-09-06T03:46:45.040Z,100.00
2023-09-06T03:49:31.208Z,100.00
2023-09-06T03:52:16.050Z,100.00
2023-09-06T03:55:01.033Z,100.00
2023-09-06T03:57:46.393Z,100.00
2023-09-06T04:00:31.374Z,100.00
2023-09-06T04:03:17.960Z,100.00
2023-09-06T04:06:03.191Z,100.00
2023-09-06T04:08:48.158Z,100.00
2023-09-06T04:11:33.479Z,100.00
2023-09-06T04:14:18.209Z,100.00
2023-09-06T04:17:03.011Z,100.00
2023-09-06T04:19:47.863Z,100.00
2023-09-06T04:22:32.869Z,100.00
2023-09-06T04:25:17.920Z,100.00
2023-09-06T04:28:03.168Z,100.00
2023-09-06T04:30:48.071Z,100.00
2023-09-06T04:33:33.017Z,100.00
2023-09-06T04:36:17.818Z,100.00
2023-09-06T04:39:02.712Z,100.00
2023-09-06T04:41:47.575Z,100.00
2023-09-06T04:44:32.559Z,100.00
2023-09-06T04:47:17.478Z,100.00
2023-09-06T04:50:02.379Z,100.00
2023-09-06T04:52:49.605Z,100.00
2023-09-06T04:55:35.191Z,100.00
2023-09-06T04:58:20.761Z,100.00
2023-09-06T05:01:05.700Z,100.00
2023-09-06T05:03:51.034Z,100.00
2023-09-06T05:06:36.508Z,100.00
2023-09-06T05:09:21.370Z,100.00
2023-09-06T05:12:07.018Z,100.00
2023-09-06T05:14:53.886Z,100.00
2023-09-06T05:17:42.715Z,100.00
2023-09-06T05:20:31.050Z,100.00
2023-09-06T05:23:16.440Z,100.00
2023-09-06T05:26:01.374Z,100.00
2023-09-06T05:28:46.818Z,100.00
2023-09-06T05:31:31.838Z,100.00
2023-09-06T05:34:17.539Z,100.00
2023-09-06T05:37:02.682Z,100.00
2023-09-06T05:39:47.774Z,100.00
2023-09-06T05:42:32.925Z,100.00
2023-09-06T05:45:19.599Z,100.00
2023-09-06T05:48:04.881Z,100.00
2023-09-06T05:50:49.994Z,100.00
2023-09-06T05:53:34.864Z,100.00
2023-09-06T05:56:19.771Z,100.00
2023-09-06T05:59:05.156Z,100.00
2023-09-06T06:01:50.086Z,100.00
2023-09-06T06:04:35.612Z,100.00
2023-09-06T06:07:20.955Z,100.00
2023-09-06T06:10:07.751Z,100.00
2023-09-06T06:12:52.966Z,100.00
2023-09-06T06:15:37.973Z,100.00
2023-09-06T06:18:22.817Z,100.00
2023-09-06T06:21:07.660Z,100.00
2023-09-06T06:23:52.477Z,100.00
2023-09-06T06:26:37.453Z,98.01
2023-09-06T06:29:22.440Z,96.80
2023-09-06T06:32:07.751Z,95.50
2023-09-06T06:35:14.991Z,93.75
2023-09-06T06:38:00.429Z,92.23
2023-09-06T06:40:45.214Z,89.90
2023-09-06T06:43:30.107Z,88.71
2023-09-06T06:46:24.770Z,88.91
2023-09-06T06:49:10.752Z,86.99
2023-09-06T06:51:55.965Z,84.56
2023-09-06T06:54:41.205Z,83.09
2023-09-06T06:57:27.246Z,82.44
2023-09-06T07:00:12.938Z,81.46
2023-09-06T07:02:58.732Z,80.23
2023-09-06T07:05:43.501Z,79.25
2023-09-06T07:08:28.710Z,77.32
2023-09-06T07:11:15.116Z,77.07
2023-09-06T07:14:00.645Z,77.00
2023-09-06T07:16:45.951Z,76.65
2023-09-06T07:19:31.309Z,74.82
2023-09-06T07:22:16.538Z,73.21
2023-09-06T07:25:02.168Z,72.40
2023-09-06T07:27:47.949Z,72.55
2023-09-06T07:30:32.703Z,71.08
2023-09-06T07:33:18.041Z,71.07
2023-09-06T07:36:03.822Z,69.50
2023-09-06T07:38:49.368Z,69.47
2023-09-06T07:41:34.560Z,66.71
2023-09-06T07:44:20.154Z,67.72
2023-09-06T07:47:05.331Z,67.08
2023-09-06T07:49:50.537Z,65.30
2023-09-06T07:52:36.440Z,66.38
2023-09-06T07:55:21.358Z,64.79
2023-09-06T07:58:06.159Z,64.67
2023-09-06T08:00:59.267Z,63.84
2023-09-06T08:03:48.539Z,64.17
2023-09-06T08:06:34.377Z,62.84
2023-09-06T08:09:20.280Z,60.59
2023-09-06T08:12:06.845Z,61.83
2023-09-06T08:14:52.912Z,63.20
2023-09-06T08:17:38.089Z,63.50
2023-09-06T08:20:23.271Z,61.29
2023-09-06T08:23:08.983Z,59.26
2023-09-06T08:25:53.774Z,58.42
2023-09-06T08:28:39.848Z,58.80
2023-09-06T08:31:25.196Z,57.16
2023-09-06T08:34:11.270Z,57.56
2023-09-06T08:36:56.416Z,54.85
2023-09-06T08:39:41.530Z,55.69
2023-09-06T08:42:28.009Z,56.15
2023-09-06T08:45:12.837Z,58.01
2023-09-06T08:47:58.109Z,57.66
2023-09-06T08:50:45.154Z,54.04
2023-09-06T08:53:31.936Z,53.22
2023-09-06T08:56:18.213Z,53.49
2023-09-06T08:59:03.386Z,55.27
2023-09-06T09:01:48.614Z,53.40
2023-09-06T09:04:33.554Z,53.49
2023-09-06T09:07:18.838Z,55.82
2023-09-06T09:10:08.235Z,54.41
2023-09-06T09:12:55.825Z,55.45
2023-09-06T09:15:41.260Z,57.25
2023-09-06T09:18:29.803Z,56.01
2023-09-06T09:21:14.899Z,55.76
2023-09-06T09:24:01.005Z,55.54
2023-09-06T09:26:46.372Z,58.21
2023-09-06T09:29:31.314Z,57.55
2023-09-06T09:32:16.743Z,55.37
2023-09-06T09:35:02.502Z,57.99
2023-09-06T09:37:52.248Z,57.33
2023-09-06T09:40:52.382Z,57.04
2023-09-06T09:43:38.274Z,57.72
2023-09-06T09:46:30.157Z,56.98
2023-09-06T09:49:17.944Z,58.08
2023-09-06T09:52:03.378Z,58.25
2023-09-06T09:54:48.987Z,59.60
2023-09-06T09:57:35.289Z,59.41
2023-09-06T10:00:21.840Z,59.57
2023-09-06T10:03:07.331Z,59.08
2023-09-06T10:05:54.004Z,58.23
2023-09-06T10:08:40.816Z,56.37
2023-09-06T10:11:27.765Z,55.57
2023-09-06T10:14:13.536Z,55.95
2023-09-06T10:16:59.720Z,57.29
2023-09-06T10:19:54.447Z,56.57
2023-09-06T10:22:44.954Z,58.30
2023-09-06T10:25:31.250Z,60.06
2023-09-06T10:28:20.936Z,56.73
2023-09-06T10:31:06.495Z,56.92
2023-09-06T10:33:54.431Z,54.67
2023-09-06T10:36:58.918Z,55.63
2023-09-06T10:39:53.282Z,54.41
2023-09-06T10:42:38.230Z,54.84
2023-09-06T10:45:23.227Z,53.24
2023-09-06T10:48:11.617Z,53.70
2023-09-06T10:51:11.203Z,53.99
2023-09-06T10:53:56.870Z,54.23
2023-09-06T10:56:51.510Z,51.39
2023-09-06T10:59:43.367Z,53.93
2023-09-06T11:02:29.041Z,53.59
2023-09-06T11:05:32.635Z,51.73
2023-09-06T11:08:29.633Z,53.38
2023-09-06T11:11:14.788Z,53.17
2023-09-06T11:14:02.308Z,53.50
2023-09-06T11:16:47.974Z,54.20
2023-09-06T11:19:33.405Z,54.26
2023-09-06T11:22:21.537Z,52.61
2023-09-06T11:25:19.949Z,53.24
2023-09-06T11:28:19.422Z,51.96
2023-09-06T11:31:04.962Z,53.57
2023-09-06T11:34:03.144Z,52.51
2023-09-06T11:36:48.280Z,50.92
2023-09-06T11:39:33.395Z,51.57
2023-09-06T11:42:18.555Z,52.05
2023-09-06T11:45:03.897Z,52.01
2023-09-06T11:47:49.555Z,51.32
2023-09-06T11:50:38.713Z,49.77
2023-09-06T11:53:24.862Z,51.18
2023-09-06T11:56:11.097Z,49.15
2023-09-06T11:59:01.618Z,51.52
2023-09-06T12:01:46.611Z,50.29
2023-09-06T12:04:31.982Z,50.45
2023-09-06T12:07:17.315Z,50.75
2023-09-06T12:10:02.616Z,47.00
2023-09-06T12:12:49.844Z,46.15
2023-09-06T12:15:35.129Z,45.03
2023-09-06T12:18:20.024Z,43.29
2023-09-06T12:21:06.432Z,43.55
2023-09-06T12:23:51.617Z,42.86
2023-09-06T12:26:36.320Z,42.55
2023-09-06T12:29:21.701Z,43.17
2023-09-06T12:32:06.801Z,42.20
2023-09-06T12:34:51.724Z,38.05
2023-09-06T12:37:38.392Z,38.88
2023-09-06T12:40:23.402Z,37.63
2023-09-06T12:43:08.860Z,39.49
2023-09-06T12:45:54.928Z,40.12
2023-09-06T12:48:40.408Z,37.84
2023-09-06T12:51:25.677Z,38.81
2023-09-06T12:54:11.187Z,38.21
2023-09-06T12:56:56.638Z,38.61
2023-09-06T12:59:42.092Z,38.43
2023-09-06T13:02:27.194Z,37.72
2023-09-06T13:05:12.923Z,39.20
2023-09-06T13:08:01.534Z,36.62
2023-09-06T13:10:46.532Z,38.93
2023-09-06T13:13:32.013Z,38.39
2023-09-06T13:16:16.894Z,37.20
2023-09-06T13:19:01.855Z,38.46
2023-09-06T13:21:47.115Z,37.07
2023-09-06T13:24:32.477Z,36.54
2023-09-06T13:27:18.289Z,39.22
2023-09-06T13:30:04.513Z,40.94
2023-09-06T13:32:50.229Z,42.16
2023-09-06T13:35:35.402Z,42.63
2023-09-06T13:38:20.326Z,40.96
2023-09-06T13:41:05.174Z,45.19
2023-09-06T13:43:50.528Z,44.47
2023-09-06T13:46:36.909Z,44.76
2023-09-06T13:49:21.711Z,44.57
2023-09-06T13:52:07.925Z,45.21
2023-09-06T13:54:53.136Z,44.87
2023-09-06T13:57:38.004Z,43.69
2023-09-06T14:00:24.420Z,43.15
2023-09-06T14:03:09.390Z,43.13
2023-09-06T14:05:54.724Z,40.83
2023-09-06T14:08:40.893Z,39.72
2023-09-06T14:11:25.940Z,40.07
2023-09-06T14:14:10.998Z,41.54
2023-09-06T14:16:56.375Z,41.04
2023-09-06T14:19:41.410Z,41.19
2023-09-06T14:22:26.384Z,41.56
2023-09-06T14:25:11.835Z,41.70
2023-09-06T14:27:57.278Z,41.35
2023-09-06T14:30:43.523Z,42.37
2023-09-06T14:33:29.320Z,42.76
2023-09-06T14:36:14.593Z,43.49
2023-09-06T14:38:59.522Z,45.63
2023-09-06T14:41:45.044Z,44.65
2023-09-06T14:44:29.948Z,44.61
2023-09-06T14:47:15.534Z,44.75
2023-09-06T14:50:00.730Z,44.62
2023-09-06T14:52:45.625Z,44.83
2023-09-06T14:55:31.878Z,45.22
2023-09-06T14:58:17.025Z,44.84
2023-09-06T15:01:01.999Z,44.85
2023-09-06T15:03:47.438Z,46.11
2023-09-06T15:06:48.003Z,46.20
2023-09-06T15:09:37.929Z,45.96
2023-09-06T15:12:22.767Z,45.47
2023-09-06T15:15:09.849Z,45.71
2023-09-06T15:17:57.242Z,46.15
2023-09-06T15:20:44.409Z,45.55
2023-09-06T15:23:29.351Z,45.66
2023-09-06T15:26:14.287Z,46.83
2023-09-06T15:28:59.145Z,47.04
2023-09-06T15:31:44.170Z,48.25
2023-09-06T15:34:29.321Z,47.89
2023-09-06T15:37:14.178Z,49.11
2023-09-06T15:39:59.062Z,49.33
2023-09-06T15:42:44.443Z,49.45
2023-09-06T15:45:29.259Z,49.09
2023-09-06T15:48:14.097Z,49.67
2023-09-06T15:50:58.928Z,48.87
2023-09-06T15:53:44.332Z,47.52
2023-09-06T15:56:29.650Z,48.02
2023-09-06T15:59:14.433Z,47.74
2023-09-06T16:01:59.445Z,49.25
2023-09-06T16:04:44.682Z,48.60
2023-09-06T16:07:29.670Z,47.88
2023-09-06T16:10:14.624Z,48.31
2023-09-06T16:12:59.474Z,47.61
2023-09-06T16:15:44.233Z,46.91
2023-09-06T16:18:29.408Z,47.47
2023-09-06T16:21:14.591Z,46.62
2023-09-06T16:24:00.063Z,47.99
2023-09-06T16:26:46.854Z,45.94
2023-09-06T16:29:32.390Z,47.19
2023-09-06T16:32:17.559Z,47.62
2023-09-06T16:35:03.277Z,47.14
2023-09-06T16:37:48.553Z,47.76
2023-09-06T16:40:36.895Z,46.23
2023-09-06T16:43:21.978Z,45.75
2023-09-06T16:46:07.073Z,45.40
2023-09-06T16:48:52.537Z,46.97
2023-09-06T16:51:37.460Z,45.59
2023-09-06T16:54:22.472Z,45.34
2023-09-06T16:57:07.211Z,46.21
2023-09-06T16:59:52.575Z,45.36
2023-09-06T17:02:37.387Z,45.64
2023-09-06T17:05:22.876Z,45.25
2023-09-06T17:08:08.282Z,46.67
2023-09-06T17:10:53.554Z,46.69
2023-09-06T17:13:38.527Z,47.12
2023-09-06T17:16:24.423Z,47.34
2023-09-06T17:19:11.116Z,50.33
2023-09-06T17:21:57.014Z,47.65
2023-09-06T17:24:42.147Z,48.39
2023-09-06T17:27:28.103Z,49.62
2023-09-06T17:30:14.436Z,54.03
2023-09-06T17:33:15.436Z,57.87
2023-09-06T17:36:00.746Z,61.58
2023-09-06T17:38:45.589Z,63.46
2023-09-06T17:41:30.589Z,64.24
2023-09-06T17:44:16.013Z,63.32
2023-09-06T17:47:01.009Z,67.00
2023-09-06T17:49:45.894Z,69.11
2023-09-06T17:52:31.253Z,69.54
2023-09-06T17:55:17.246Z,70.64
2023-09-06T17:58:01.943Z,72.19
2023-09-06T18:00:47.275Z,73.91
2023-09-06T18:03:32.318Z,75.62
2023-09-06T18:06:18.466Z,74.52
2023-09-06T18:09:03.645Z,69.05
2023-09-06T18:11:48.469Z,66.99
2023-09-06T18:14:33.484Z,65.52
2023-09-06T18:17:18.387Z,66.31
2023-09-06T18:20:03.825Z,66.10
2023-09-06T18:22:48.740Z,66.04
2023-09-06T18:25:33.675Z,66.95
2023-09-06T18:28:18.508Z,68.34
2023-09-06T18:31:03.874Z,68.35
2023-09-06T18:33:49.317Z,67.57
2023-09-06T18:36:34.114Z,67.33
2023-09-06T18:39:19.554Z,67.19
2023-09-06T18:42:04.546Z,67.44
2023-09-06T18:44:49.699Z,67.58
2023-09-06T18:47:34.615Z,67.61
2023-09-06T18:50:20.834Z,68.26
2023-09-06T18:53:07.309Z,67.87
2023-09-06T18:55:52.370Z,66.93
2023-09-06T18:58:37.736Z,67.04
2023-09-06T19:01:23.202Z,67.42
2023-09-06T19:04:08.474Z,70.73
2023-09-06T19:06:54.032Z,69.42
2023-09-06T19:09:38.779Z,69.88
2023-09-06T19:12:23.741Z,69.38
2023-09-06T19:15:09.685Z,68.14
2023-09-06T19:17:54.979Z,68.89
2023-09-06T19:20:39.991Z,69.69
2023-09-06T19:23:25.266Z,68.83
2023-09-06T19:26:10.218Z,69.16
2023-09-06T19:28:55.102Z,68.53
2023-09-06T19:31:40.038Z,68.79
2023-09-06T19:34:24.830Z,71.92
2023-09-06T19:37:10.209Z,74.93
2023-09-06T19:39:55.028Z,78.00
2023-09-06T19:42:39.902Z,81.35
2023-09-06T19:45:24.823Z,83.81
2023-09-06T19:48:09.769Z,85.20
2023-09-06T19:50:54.664Z,82.81
2023-09-06T19:53:39.953Z,78.25
2023-09-06T19:56:25.409Z,75.99
2023-09-06T19:59:10.149Z,75.27
2023-09-06T20:01:55.058Z,76.79
2023-09-06T20:04:40.739Z,80.22
2023-09-06T20:07:27.574Z,83.13
2023-09-06T20:10:14.340Z,83.65
2023-09-06T20:12:59.679Z,81.41
2023-09-06T20:15:44.734Z,80.41
2023-09-06T20:18:30.573Z,81.46
2023-09-06T20:21:15.834Z,82.70
2023-09-06T20:24:00.762Z,81.95
2023-09-06T20:26:45.720Z,80.52
2023-09-06T20:29:30.578Z,79.24
2023-09-06T20:32:15.320Z,78.49
2023-09-06T20:35:00.172Z,77.98
2023-09-06T20:37:45.048Z,77.30
2023-09-06T20:40:30.474Z,77.14
2023-09-06T20:43:15.762Z,76.90
2023-09-06T20:46:00.946Z,76.95
2023-09-06T20:48:46.100Z,76.60
2023-09-06T20:51:30.898Z,77.80
2023-09-06T20:54:15.877Z,77.75
2023-09-06T20:57:01.248Z,77.88
2023-09-06T20:59:46.118Z,78.16
2023-09-06T21:02:31.031Z,78.03
2023-09-06T21:05:16.014Z,79.00
2023-09-06T21:08:00.857Z,80.95
2023-09-06T21:10:45.622Z,80.68
2023-09-06T21:13:30.519Z,80.93
2023-09-06T21:16:15.971Z,80.84
2023-09-06T21:19:01.278Z,81.07
2023-09-06T21:21:46.279Z,80.67
2023-09-06T21:24:31.277Z,80.82
2023-09-06T21:27:16.638Z,81.29
2023-09-06T21:30:01.408Z,81.37
2023-09-06T21:32:46.401Z,80.55
2023-09-06T21:35:31.182Z,79.40
2023-09-06T21:38:16.186Z,78.95
2023-09-06T21:41:00.938Z,77.96
2023-09-06T21:43:45.720Z,77.04
2023-09-06T21:46:30.799Z,76.47
2023-09-06T21:49:15.765Z,75.86
2023-09-06T21:52:00.565Z,74.99
2023-09-06T21:54:45.665Z,74.23
2023-09-06T21:57:30.740Z,74.09
2023-09-06T22:00:15.933Z,73.44
2023-09-06T22:03:01.229Z,72.84
2023-09-06T22:05:49.163Z,72.57
2023-09-06T22:08:34.289Z,71.83
2023-09-06T22:11:19.594Z,71.52
2023-09-06T22:14:04.539Z,71.55
2023-09-06T22:16:49.522Z,70.92
2023-09-06T22:19:34.548Z,70.19
2023-09-06T22:22:19.760Z,70.25
2023-09-06T22:25:08.260Z,70.19
2023-09-06T22:27:53.733Z,70.48
2023-09-06T22:30:41.640Z,70.11
2023-09-06T22:33:26.439Z,69.87
2023-09-06T22:36:11.304Z,69.59
2023-09-06T22:38:56.735Z,69.84
2023-09-06T22:41:41.726Z,69.54
2023-09-06T22:44:26.613Z,69.32
2023-09-06T22:47:11.582Z,69.20
2023-09-06T22:49:56.496Z,69.95
2023-09-06T22:52:41.565Z,69.96
2023-09-06T22:55:27.333Z,69.86
2023-09-06T22:58:12.237Z,70.44
2023-09-06T23:01:07.365Z,71.55
2023-09-06T23:03:52.826Z,71.89
2023-09-06T23:06:38.043Z,72.09
2023-09-06T23:09:22.994Z,72.84
2023-09-06T23:12:07.836Z,72.76
2023-09-06T23:14:53.290Z,73.75
2023-09-06T23:17:38.273Z,71.71
2023-09-06T23:20:23.990Z,72.13
2023-09-06T23:23:09.112Z,71.36
2023-09-06T23:25:54.189Z,71.24
2023-09-06T23:28:39.178Z,71.51
2023-09-06T23:31:24.945Z,70.84
2023-09-06T23:34:10.095Z,71.83
2023-09-06T23:36:55.735Z,73.09
2023-09-06T23:39:40.757Z,73.68
2023-09-06T23:42:25.601Z,74.65
2023-09-06T23:45:10.557Z,74.51
2023-09-06T23:47:57.723Z,74.67
2023-09-06T23:50:44.503Z,74.46
2023-09-06T23:53:29.941Z,73.89
2023-09-06T23:56:15.409Z,74.00
2023-09-06T23:59:00.116Z,74.71
